sensor_id;sensor_type;location;lat;lon;timestamp;temperature;humidity
50955;DHT22;36966;48.064;-0.792;2023-02-28T00:00:29;15.90;32.70
50955;DHT22;36966;48.064;-0.792;2023-02-28T00:02:48;15.80;32.70
50955;DHT22;36966;48.064;-0.792;2023-02-28T00:05:10;15.90;32.70
50955;DHT22;36966;48.064;-0.792;2023-02-28T00:07:30;15.90;32.60
50955;DHT22;36966;48.064;-0.792;2023-02-28T00:09:49;15.80;32.60
50955;DHT22;36966;48.064;-0.792;2023-02-28T00:12:08;15.80;32.60
50955;DHT22;36966;48.064;-0.792;2023-02-28T00:14:30;15.80;32.60
50955;DHT22;36966;48.064;-0.792;2023-02-28T00:16:49;15.80;32.70
50955;DHT22;36966;48.064;-0.792;2023-02-28T00:19:08;15.90;32.70
50955;DHT22;36966;48.064;-0.792;2023-02-28T00:21:28;15.80;32.70
50955;DHT22;36966;48.064;-0.792;2023-02-28T00:23:48;15.80;32.70
50955;DHT22;36966;48.064;-0.792;2023-02-28T00:26:07;15.80;32.70
50955;DHT22;36966;48.064;-0.792;2023-02-28T00:28:26;15.80;32.80
50955;DHT22;36966;48.064;-0.792;2023-02-28T00:30:46;15.80;32.80
50955;DHT22;36966;48.064;-0.792;2023-02-28T00:33:05;15.80;32.70
50955;DHT22;36966;48.064;-0.792;2023-02-28T00:35:24;15.80;32.70
50955;DHT22;36966;48.064;-0.792;2023-02-28T00:37:44;15.80;32.70
50955;DHT22;36966;48.064;-0.792;2023-02-28T00:40:04;15.80;32.70
50955;DHT22;36966;48.064;-0.792;2023-02-28T00:42:27;15.80;32.70
50955;DHT22;36966;48.064;-0.792;2023-02-28T00:44:46;15.80;32.70
50955;DHT22;36966;48.064;-0.792;2023-02-28T00:47:05;15.70;32.80
50955;DHT22;36966;48.064;-0.792;2023-02-28T00:49:25;15.70;32.70
50955;DHT22;36966;48.064;-0.792;2023-02-28T00:51:45;15.70;32.80
50955;DHT22;36966;48.064;-0.792;2023-02-28T00:54:04;15.70;32.80
50955;DHT22;36966;48.064;-0.792;2023-02-28T00:56:23;15.70;32.80
50955;DHT22;36966;48.064;-0.792;2023-02-28T00:58:43;15.70;32.80
50955;DHT22;36966;48.064;-0.792;2023-02-28T01:01:02;15.70;32.80
50955;DHT22;36966;48.064;-0.792;2023-02-28T01:03:21;15.70;32.80
50955;DHT22;36966;48.064;-0.792;2023-02-28T01:05:41;15.70;32.80
50955;DHT22;36966;48.064;-0.792;2023-02-28T01:08:00;15.70;32.70
50955;DHT22;36966;48.064;-0.792;2023-02-28T01:10:19;15.70;32.70
50955;DHT22;36966;48.064;-0.792;2023-02-28T01:12:40;15.70;32.70
50955;DHT22;36966;48.064;-0.792;2023-02-28T01:14:59;15.70;32.80
50955;DHT22;36966;48.064;-0.792;2023-02-28T01:17:18;15.70;32.80
50955;DHT22;36966;48.064;-0.792;2023-02-28T01:19:37;15.70;32.90
50955;DHT22;36966;48.064;-0.792;2023-02-28T01:21:56;15.70;32.90
50955;DHT22;36966;48.064;-0.792;2023-02-28T01:24:15;15.70;32.90
50955;DHT22;36966;48.064;-0.792;2023-02-28T01:26:35;15.70;33.00
50955;DHT22;36966;48.064;-0.792;2023-02-28T01:28:54;15.70;33.00
50955;DHT22;36966;48.064;-0.792;2023-02-28T01:31:14;15.70;33.00
50955;DHT22;36966;48.064;-0.792;2023-02-28T01:33:34;15.70;32.90
50955;DHT22;36966;48.064;-0.792;2023-02-28T01:36:04;15.70;32.90
50955;DHT22;36966;48.064;-0.792;2023-02-28T01:38:24;15.70;32.90
50955;DHT22;36966;48.064;-0.792;2023-02-28T01:40:44;15.70;32.80
50955;DHT22;36966;48.064;-0.792;2023-02-28T01:43:04;15.70;32.80
50955;DHT22;36966;48.064;-0.792;2023-02-28T01:45:29;15.70;32.90
50955;DHT22;36966;48.064;-0.792;2023-02-28T01:47:52;15.60;32.90
50955;DHT22;36966;48.064;-0.792;2023-02-28T01:50:17;15.70;32.90
50955;DHT22;36966;48.064;-0.792;2023-02-28T01:52:37;15.70;32.90
50955;DHT22;36966;48.064;-0.792;2023-02-28T01:54:59;15.60;33.00
50955;DHT22;36966;48.064;-0.792;2023-02-28T01:57:22;15.60;33.00
50955;DHT22;36966;48.064;-0.792;2023-02-28T01:59:57;15.60;33.00
50955;DHT22;36966;48.064;-0.792;2023-02-28T02:02:19;15.60;33.00
50955;DHT22;36966;48.064;-0.792;2023-02-28T02:04:45;15.60;32.90
50955;DHT22;36966;48.064;-0.792;2023-02-28T02:07:09;15.60;32.90
50955;DHT22;36966;48.064;-0.792;2023-02-28T02:09:30;15.60;32.90
50955;DHT22;36966;48.064;-0.792;2023-02-28T02:11:49;15.60;32.90
50955;DHT22;36966;48.064;-0.792;2023-02-28T02:27:33;15.60;33.10
50955;DHT22;36966;48.064;-0.792;2023-02-28T02:35:52;15.50;33.10
50955;DHT22;36966;48.064;-0.792;2023-02-28T02:38:31;15.50;33.00
50955;DHT22;36966;48.064;-0.792;2023-02-28T02:43:38;15.50;33.00
50955;DHT22;36966;48.064;-0.792;2023-02-28T02:47:05;15.50;33.00
50955;DHT22;36966;48.064;-0.792;2023-02-28T02:49:07;15.50;33.10
50955;DHT22;36966;48.064;-0.792;2023-02-28T02:51:28;15.50;33.10
50955;DHT22;36966;48.064;-0.792;2023-02-28T02:53:58;15.50;33.10
50955;DHT22;36966;48.064;-0.792;2023-02-28T02:56:22;15.50;33.10
50955;DHT22;36966;48.064;-0.792;2023-02-28T02:58:44;15.50;33.10
50955;DHT22;36966;48.064;-0.792;2023-02-28T03:01:05;15.50;33.10
50955;DHT22;36966;48.064;-0.792;2023-02-28T03:03:24;15.50;33.10
50955;DHT22;36966;48.064;-0.792;2023-02-28T03:05:50;15.50;33.10
50955;DHT22;36966;48.064;-0.792;2023-02-28T03:08:09;15.50;33.10
50955;DHT22;36966;48.064;-0.792;2023-02-28T03:10:44;15.50;33.10
50955;DHT22;36966;48.064;-0.792;2023-02-28T03:15:33;15.40;33.10
50955;DHT22;36966;48.064;-0.792;2023-02-28T03:18:21;15.40;33.10
50955;DHT22;36966;48.064;-0.792;2023-02-28T03:21:06;15.50;33.20
50955;DHT22;36966;48.064;-0.792;2023-02-28T03:23:43;15.40;33.20
50955;DHT22;36966;48.064;-0.792;2023-02-28T03:26:23;15.40;33.20
50955;DHT22;36966;48.064;-0.792;2023-02-28T03:31:45;15.40;33.20
50955;DHT22;36966;48.064;-0.792;2023-02-28T03:34:19;15.40;33.20
50955;DHT22;36966;48.064;-0.792;2023-02-28T03:36:45;15.40;33.20
50955;DHT22;36966;48.064;-0.792;2023-02-28T03:39:08;15.40;33.20
50955;DHT22;36966;48.064;-0.792;2023-02-28T03:41:36;15.40;33.10
50955;DHT22;36966;48.064;-0.792;2023-02-28T03:44:09;15.40;33.20
50955;DHT22;36966;48.064;-0.792;2023-02-28T03:46:37;15.40;33.20
50955;DHT22;36966;48.064;-0.792;2023-02-28T03:49:09;15.40;33.20
50955;DHT22;36966;48.064;-0.792;2023-02-28T03:51:32;15.40;33.20
50955;DHT22;36966;48.064;-0.792;2023-02-28T03:53:59;15.30;33.20
50955;DHT22;36966;48.064;-0.792;2023-02-28T03:56:34;15.30;33.20
50955;DHT22;36966;48.064;-0.792;2023-02-28T04:01:44;15.30;33.20
50955;DHT22;36966;48.064;-0.792;2023-02-28T04:04:04;15.30;33.20
50955;DHT22;36966;48.064;-0.792;2023-02-28T04:06:23;15.30;33.20
50955;DHT22;36966;48.064;-0.792;2023-02-28T04:08:43;15.30;33.20
50955;DHT22;36966;48.064;-0.792;2023-02-28T04:11:23;15.30;33.20
50955;DHT22;36966;48.064;-0.792;2023-02-28T04:13:42;15.30;33.20
50955;DHT22;36966;48.064;-0.792;2023-02-28T04:16:06;15.30;33.20
50955;DHT22;36966;48.064;-0.792;2023-02-28T04:18:31;15.30;33.20
50955;DHT22;36966;48.064;-0.792;2023-02-28T04:20:50;15.30;33.20
50955;DHT22;36966;48.064;-0.792;2023-02-28T04:23:09;15.30;33.30
50955;DHT22;36966;48.064;-0.792;2023-02-28T04:25:28;15.30;33.30
50955;DHT22;36966;48.064;-0.792;2023-02-28T04:27:47;15.20;33.20
50955;DHT22;36966;48.064;-0.792;2023-02-28T04:30:07;15.20;33.30
50955;DHT22;36966;48.064;-0.792;2023-02-28T04:32:27;15.30;33.30
50955;DHT22;36966;48.064;-0.792;2023-02-28T04:34:46;15.30;33.30
50955;DHT22;36966;48.064;-0.792;2023-02-28T04:37:05;15.20;33.20
50955;DHT22;36966;48.064;-0.792;2023-02-28T04:39:25;15.30;33.30
50955;DHT22;36966;48.064;-0.792;2023-02-28T04:41:45;15.30;33.20
50955;DHT22;36966;48.064;-0.792;2023-02-28T04:44:04;15.20;33.20
50955;DHT22;36966;48.064;-0.792;2023-02-28T04:46:23;15.20;33.20
50955;DHT22;36966;48.064;-0.792;2023-02-28T04:48:42;15.30;33.20
50955;DHT22;36966;48.064;-0.792;2023-02-28T04:51:09;15.30;33.30
50955;DHT22;36966;48.064;-0.792;2023-02-28T04:53:28;15.20;33.30
50955;DHT22;36966;48.064;-0.792;2023-02-28T04:55:47;15.20;33.30
50955;DHT22;36966;48.064;-0.792;2023-02-28T04:58:06;15.20;33.30
50955;DHT22;36966;48.064;-0.792;2023-02-28T05:00:26;15.20;33.30
50955;DHT22;36966;48.064;-0.792;2023-02-28T05:02:45;15.20;33.30
50955;DHT22;36966;48.064;-0.792;2023-02-28T05:05:04;15.20;33.30
50955;DHT22;36966;48.064;-0.792;2023-02-28T05:07:24;15.20;33.30
50955;DHT22;36966;48.064;-0.792;2023-02-28T05:09:44;15.20;33.30
50955;DHT22;36966;48.064;-0.792;2023-02-28T05:12:03;15.20;33.30
50955;DHT22;36966;48.064;-0.792;2023-02-28T05:14:22;15.20;33.30
50955;DHT22;36966;48.064;-0.792;2023-02-28T05:16:42;15.20;33.30
50955;DHT22;36966;48.064;-0.792;2023-02-28T05:19:01;15.20;33.30
50955;DHT22;36966;48.064;-0.792;2023-02-28T05:21:41;15.20;33.30
50955;DHT22;36966;48.064;-0.792;2023-02-28T05:24:06;15.20;33.30
50955;DHT22;36966;48.064;-0.792;2023-02-28T05:26:27;15.20;33.30
50955;DHT22;36966;48.064;-0.792;2023-02-28T05:28:47;15.20;33.30
50955;DHT22;36966;48.064;-0.792;2023-02-28T05:31:06;15.20;33.40
50955;DHT22;36966;48.064;-0.792;2023-02-28T05:33:25;15.20;33.40
50955;DHT22;36966;48.064;-0.792;2023-02-28T05:35:44;15.20;33.40
50955;DHT22;36966;48.064;-0.792;2023-02-28T05:38:04;15.20;33.30
50955;DHT22;36966;48.064;-0.792;2023-02-28T05:40:23;15.10;33.40
50955;DHT22;36966;48.064;-0.792;2023-02-28T05:42:42;15.20;33.30
50955;DHT22;36966;48.064;-0.792;2023-02-28T05:45:01;15.20;33.30
50955;DHT22;36966;48.064;-0.792;2023-02-28T05:47:21;15.10;33.30
50955;DHT22;36966;48.064;-0.792;2023-02-28T05:49:40;15.10;33.30
50955;DHT22;36966;48.064;-0.792;2023-02-28T05:51:59;15.20;33.30
50955;DHT22;36966;48.064;-0.792;2023-02-28T05:54:19;15.10;33.40
50955;DHT22;36966;48.064;-0.792;2023-02-28T05:56:38;15.10;33.30
50955;DHT22;36966;48.064;-0.792;2023-02-28T05:58:58;15.10;33.40
50955;DHT22;36966;48.064;-0.792;2023-02-28T06:01:34;15.10;33.40
50955;DHT22;36966;48.064;-0.792;2023-02-28T06:03:54;15.10;33.40
50955;DHT22;36966;48.064;-0.792;2023-02-28T06:06:13;15.10;33.40
50955;DHT22;36966;48.064;-0.792;2023-02-28T06:08:32;15.10;33.30
50955;DHT22;36966;48.064;-0.792;2023-02-28T06:10:51;15.10;33.40
50955;DHT22;36966;48.064;-0.792;2023-02-28T06:13:10;15.10;33.30
50955;DHT22;36966;48.064;-0.792;2023-02-28T06:15:32;15.10;33.40
50955;DHT22;36966;48.064;-0.792;2023-02-28T06:17:51;15.10;33.40
50955;DHT22;36966;48.064;-0.792;2023-02-28T06:20:11;15.10;33.30
50955;DHT22;36966;48.064;-0.792;2023-02-28T06:22:31;15.10;33.30
50955;DHT22;36966;48.064;-0.792;2023-02-28T06:24:50;15.10;33.40
50955;DHT22;36966;48.064;-0.792;2023-02-28T06:27:11;15.10;33.40
50955;DHT22;36966;48.064;-0.792;2023-02-28T06:29:32;15.10;33.40
50955;DHT22;36966;48.064;-0.792;2023-02-28T06:31:52;15.00;33.40
50955;DHT22;36966;48.064;-0.792;2023-02-28T06:34:11;15.00;33.40
50955;DHT22;36966;48.064;-0.792;2023-02-28T06:36:31;15.00;33.40
50955;DHT22;36966;48.064;-0.792;2023-02-28T06:38:50;15.00;33.40
50955;DHT22;36966;48.064;-0.792;2023-02-28T06:41:13;15.00;33.40
50955;DHT22;36966;48.064;-0.792;2023-02-28T06:43:39;15.00;33.40
50955;DHT22;36966;48.064;-0.792;2023-02-28T06:45:59;15.00;33.30
50955;DHT22;36966;48.064;-0.792;2023-02-28T06:48:19;15.00;33.40
50955;DHT22;36966;48.064;-0.792;2023-02-28T06:50:38;15.00;33.40
50955;DHT22;36966;48.064;-0.792;2023-02-28T06:52:58;15.00;33.30
50955;DHT22;36966;48.064;-0.792;2023-02-28T06:55:17;15.00;33.40
50955;DHT22;36966;48.064;-0.792;2023-02-28T06:57:37;15.00;33.40
50955;DHT22;36966;48.064;-0.792;2023-02-28T06:59:58;15.00;33.40
50955;DHT22;36966;48.064;-0.792;2023-02-28T07:02:18;15.00;33.40
50955;DHT22;36966;48.064;-0.792;2023-02-28T07:04:37;15.00;33.40
50955;DHT22;36966;48.064;-0.792;2023-02-28T07:07:02;15.00;33.30
50955;DHT22;36966;48.064;-0.792;2023-02-28T07:09:21;15.00;33.40
50955;DHT22;36966;48.064;-0.792;2023-02-28T07:11:40;15.00;33.30
50955;DHT22;36966;48.064;-0.792;2023-02-28T07:14:00;15.00;33.30
50955;DHT22;36966;48.064;-0.792;2023-02-28T07:16:20;14.90;33.20
50955;DHT22;36966;48.064;-0.792;2023-02-28T07:18:40;15.00;33.10
50955;DHT22;36966;48.064;-0.792;2023-02-28T07:21:02;15.00;33.10
50955;DHT22;36966;48.064;-0.792;2023-02-28T07:23:22;15.00;33.10
50955;DHT22;36966;48.064;-0.792;2023-02-28T07:25:41;15.00;33.10
50955;DHT22;36966;48.064;-0.792;2023-02-28T07:28:00;15.00;33.10
50955;DHT22;36966;48.064;-0.792;2023-02-28T07:30:20;15.00;33.10
50955;DHT22;36966;48.064;-0.792;2023-02-28T07:32:40;15.00;33.10
50955;DHT22;36966;48.064;-0.792;2023-02-28T07:34:59;15.00;33.20
50955;DHT22;36966;48.064;-0.792;2023-02-28T07:37:18;15.00;33.20
50955;DHT22;36966;48.064;-0.792;2023-02-28T07:39:38;15.00;33.20
50955;DHT22;36966;48.064;-0.792;2023-02-28T07:41:57;14.90;33.20
50955;DHT22;36966;48.064;-0.792;2023-02-28T07:44:16;14.90;33.20
50955;DHT22;36966;48.064;-0.792;2023-02-28T07:46:35;15.00;33.20
50955;DHT22;36966;48.064;-0.792;2023-02-28T07:48:55;15.00;33.20
50955;DHT22;36966;48.064;-0.792;2023-02-28T07:51:18;15.00;33.20
50955;DHT22;36966;48.064;-0.792;2023-02-28T07:53:37;15.00;33.20
50955;DHT22;36966;48.064;-0.792;2023-02-28T07:55:58;15.00;33.20
50955;DHT22;36966;48.064;-0.792;2023-02-28T07:58:17;15.00;33.20
50955;DHT22;36966;48.064;-0.792;2023-02-28T08:00:37;15.10;33.20
50955;DHT22;36966;48.064;-0.792;2023-02-28T08:02:56;15.00;33.20
50955;DHT22;36966;48.064;-0.792;2023-02-28T08:05:15;15.10;33.20
50955;DHT22;36966;48.064;-0.792;2023-02-28T08:07:35;15.10;33.10
50955;DHT22;36966;48.064;-0.792;2023-02-28T08:09:54;15.10;33.20
50955;DHT22;36966;48.064;-0.792;2023-02-28T08:12:13;15.20;33.20
50955;DHT22;36966;48.064;-0.792;2023-02-28T08:14:34;15.20;33.30
50955;DHT22;36966;48.064;-0.792;2023-02-28T08:16:54;15.20;33.30
50955;DHT22;36966;48.064;-0.792;2023-02-28T08:19:13;15.20;33.30
50955;DHT22;36966;48.064;-0.792;2023-02-28T08:21:32;15.20;33.30
50955;DHT22;36966;48.064;-0.792;2023-02-28T08:23:52;15.20;33.30
50955;DHT22;36966;48.064;-0.792;2023-02-28T08:26:11;15.30;33.20
50955;DHT22;36966;48.064;-0.792;2023-02-28T08:28:31;15.30;33.20
50955;DHT22;36966;48.064;-0.792;2023-02-28T08:30:50;15.30;33.10
50955;DHT22;36966;48.064;-0.792;2023-02-28T08:33:09;15.30;33.10
50955;DHT22;36966;48.064;-0.792;2023-02-28T08:35:28;15.40;33.00
50955;DHT22;36966;48.064;-0.792;2023-02-28T08:37:48;15.40;33.00
50955;DHT22;36966;48.064;-0.792;2023-02-28T08:40:08;15.40;32.90
50955;DHT22;36966;48.064;-0.792;2023-02-28T08:42:28;15.50;32.90
50955;DHT22;36966;48.064;-0.792;2023-02-28T08:44:47;15.50;32.90
50955;DHT22;36966;48.064;-0.792;2023-02-28T08:47:06;15.60;32.90
50955;DHT22;36966;48.064;-0.792;2023-02-28T08:49:25;15.60;32.80
50955;DHT22;36966;48.064;-0.792;2023-02-28T08:51:45;15.60;32.80
50955;DHT22;36966;48.064;-0.792;2023-02-28T08:54:05;15.70;32.80
50955;DHT22;36966;48.064;-0.792;2023-02-28T08:56:24;15.70;32.70
50955;DHT22;36966;48.064;-0.792;2023-02-28T08:58:44;15.70;32.70
50955;DHT22;36966;48.064;-0.792;2023-02-28T09:03:28;15.70;32.60
50955;DHT22;36966;48.064;-0.792;2023-02-28T09:06:00;15.80;32.70
50955;DHT22;36966;48.064;-0.792;2023-02-28T09:08:20;15.80;32.60
50955;DHT22;36966;48.064;-0.792;2023-02-28T09:10:39;15.80;32.60
50955;DHT22;36966;48.064;-0.792;2023-02-28T09:12:58;15.90;32.60
50955;DHT22;36966;48.064;-0.792;2023-02-28T09:15:17;15.90;32.60
50955;DHT22;36966;48.064;-0.792;2023-02-28T09:17:37;15.90;32.50
50955;DHT22;36966;48.064;-0.792;2023-02-28T09:19:56;16.00;32.50
50955;DHT22;36966;48.064;-0.792;2023-02-28T09:22:16;16.00;32.50
50955;DHT22;36966;48.064;-0.792;2023-02-28T09:24:36;16.00;32.40
50955;DHT22;36966;48.064;-0.792;2023-02-28T09:26:56;16.10;32.40
50955;DHT22;36966;48.064;-0.792;2023-02-28T09:29:15;16.10;32.30
50955;DHT22;36966;48.064;-0.792;2023-02-28T09:31:36;16.10;32.40
50955;DHT22;36966;48.064;-0.792;2023-02-28T09:33:58;16.10;32.30
50955;DHT22;36966;48.064;-0.792;2023-02-28T09:36:18;16.10;32.20
50955;DHT22;36966;48.064;-0.792;2023-02-28T09:38:38;16.20;32.20
50955;DHT22;36966;48.064;-0.792;2023-02-28T09:41:00;16.20;32.10
50955;DHT22;36966;48.064;-0.792;2023-02-28T09:43:23;16.20;32.10
50955;DHT22;36966;48.064;-0.792;2023-02-28T09:45:50;16.20;32.10
50955;DHT22;36966;48.064;-0.792;2023-02-28T09:48:18;16.20;32.10
50955;DHT22;36966;48.064;-0.792;2023-02-28T09:50:43;16.30;32.10
50955;DHT22;36966;48.064;-0.792;2023-02-28T09:53:32;16.30;31.80
50955;DHT22;36966;48.064;-0.792;2023-02-28T09:55:58;16.40;31.80
50955;DHT22;36966;48.064;-0.792;2023-02-28T09:58:23;16.40;31.70
50955;DHT22;36966;48.064;-0.792;2023-02-28T10:00:49;16.40;31.50
50955;DHT22;36966;48.064;-0.792;2023-02-28T10:03:25;16.50;31.60
50955;DHT22;36966;48.064;-0.792;2023-02-28T10:05:54;16.50;31.50
50955;DHT22;36966;48.064;-0.792;2023-02-28T10:08:23;16.50;31.30
50955;DHT22;36966;48.064;-0.792;2023-02-28T10:10:48;16.60;31.30
50955;DHT22;36966;48.064;-0.792;2023-02-28T10:13:20;16.60;31.10
50955;DHT22;36966;48.064;-0.792;2023-02-28T10:15:42;16.60;31.10
50955;DHT22;36966;48.064;-0.792;2023-02-28T10:18:12;16.70;31.00
50955;DHT22;36966;48.064;-0.792;2023-02-28T10:20:37;16.70;31.00
50955;DHT22;36966;48.064;-0.792;2023-02-28T10:22:58;16.70;30.90
50955;DHT22;36966;48.064;-0.792;2023-02-28T10:25:21;16.70;31.00
50955;DHT22;36966;48.064;-0.792;2023-02-28T10:27:41;16.70;30.80
50955;DHT22;36966;48.064;-0.792;2023-02-28T10:30:02;16.80;30.80
50955;DHT22;36966;48.064;-0.792;2023-02-28T10:32:30;16.80;30.60
50955;DHT22;36966;48.064;-0.792;2023-02-28T10:37:33;16.90;30.80
50955;DHT22;36966;48.064;-0.792;2023-02-28T10:39:57;17.00;30.70
50955;DHT22;36966;48.064;-0.792;2023-02-28T10:42:20;17.00;30.80
50955;DHT22;36966;48.064;-0.792;2023-02-28T10:44:40;17.00;30.70
50955;DHT22;36966;48.064;-0.792;2023-02-28T10:46:59;17.00;30.70
50955;DHT22;36966;48.064;-0.792;2023-02-28T10:51:40;17.10;30.60
50955;DHT22;36966;48.064;-0.792;2023-02-28T10:54:00;17.10;30.70
50955;DHT22;36966;48.064;-0.792;2023-02-28T10:56:24;17.10;30.40
50955;DHT22;36966;48.064;-0.792;2023-02-28T11:03:42;17.10;30.10
50955;DHT22;36966;48.064;-0.792;2023-02-28T11:06:07;17.10;30.30
50955;DHT22;36966;48.064;-0.792;2023-02-28T11:08:27;17.10;30.30
50955;DHT22;36966;48.064;-0.792;2023-02-28T11:10:53;17.10;30.30
50955;DHT22;36966;48.064;-0.792;2023-02-28T11:13:21;17.20;30.00
50955;DHT22;36966;48.064;-0.792;2023-02-28T11:15:41;17.20;30.00
50955;DHT22;36966;48.064;-0.792;2023-02-28T11:20:33;17.10;29.80
50955;DHT22;36966;48.064;-0.792;2023-02-28T11:22:54;17.20;30.00
50955;DHT22;36966;48.064;-0.792;2023-02-28T11:25:45;17.20;29.90
50955;DHT22;36966;48.064;-0.792;2023-02-28T11:28:23;17.20;29.70
50955;DHT22;36966;48.064;-0.792;2023-02-28T11:30:43;17.20;29.60
50955;DHT22;36966;48.064;-0.792;2023-02-28T11:35:40;17.20;29.50
50955;DHT22;36966;48.064;-0.792;2023-02-28T11:37:59;17.20;29.50
50955;DHT22;36966;48.064;-0.792;2023-02-28T11:40:28;17.20;29.60
50955;DHT22;36966;48.064;-0.792;2023-02-28T11:43:06;17.20;29.70
50955;DHT22;36966;48.064;-0.792;2023-02-28T11:45:59;17.20;29.80
50955;DHT22;36966;48.064;-0.792;2023-02-28T11:48:42;17.20;29.80
50955;DHT22;36966;48.064;-0.792;2023-02-28T11:56:44;17.20;29.70
50955;DHT22;36966;48.064;-0.792;2023-02-28T12:20:05;17.40;29.30
50955;DHT22;36966;48.064;-0.792;2023-02-28T12:27:48;17.40;29.50
50955;DHT22;36966;48.064;-0.792;2023-02-28T12:30:28;17.30;29.60
50955;DHT22;36966;48.064;-0.792;2023-02-28T12:33:12;17.30;29.60
50955;DHT22;36966;48.064;-0.792;2023-02-28T12:35:45;17.30;29.60
50955;DHT22;36966;48.064;-0.792;2023-02-28T12:38:22;17.30;29.50
50955;DHT22;36966;48.064;-0.792;2023-02-28T12:43:14;17.30;29.70
50955;DHT22;36966;48.064;-0.792;2023-02-28T12:45:57;17.30;29.70
50955;DHT22;36966;48.064;-0.792;2023-02-28T12:50:59;17.30;29.80
50955;DHT22;36966;48.064;-0.792;2023-02-28T12:56:19;17.40;29.70
50955;DHT22;36966;48.064;-0.792;2023-02-28T12:58:40;17.30;29.70
50955;DHT22;36966;48.064;-0.792;2023-02-28T13:06:44;17.30;30.00
50955;DHT22;36966;48.064;-0.792;2023-02-28T13:09:12;17.30;30.00
50955;DHT22;36966;48.064;-0.792;2023-02-28T13:11:42;17.30;30.10
50955;DHT22;36966;48.064;-0.792;2023-02-28T13:14:04;17.30;30.00
50955;DHT22;36966;48.064;-0.792;2023-02-28T13:16:24;17.30;30.10
50955;DHT22;36966;48.064;-0.792;2023-02-28T13:18:45;17.30;30.00
50955;DHT22;36966;48.064;-0.792;2023-02-28T13:21:23;17.30;30.10
50955;DHT22;36966;48.064;-0.792;2023-02-28T13:26:18;17.30;30.10
50955;DHT22;36966;48.064;-0.792;2023-02-28T13:31:15;17.30;30.20
50955;DHT22;36966;48.064;-0.792;2023-02-28T13:34:04;17.30;30.20
50955;DHT22;36966;48.064;-0.792;2023-02-28T13:36:26;17.30;30.00
50955;DHT22;36966;48.064;-0.792;2023-02-28T13:46:26;17.20;30.50
50955;DHT22;36966;48.064;-0.792;2023-02-28T13:48:46;17.20;30.30
50955;DHT22;36966;48.064;-0.792;2023-02-28T13:54:17;17.20;30.60
50955;DHT22;36966;48.064;-0.792;2023-02-28T14:05:06;17.20;30.90
50955;DHT22;36966;48.064;-0.792;2023-02-28T14:07:41;17.20;31.00
50955;DHT22;36966;48.064;-0.792;2023-02-28T14:10:07;17.20;31.10
50955;DHT22;36966;48.064;-0.792;2023-02-28T14:17:53;17.20;31.20
50955;DHT22;36966;48.064;-0.792;2023-02-28T14:20:17;17.20;31.10
50955;DHT22;36966;48.064;-0.792;2023-02-28T14:22:44;17.20;31.20
50955;DHT22;36966;48.064;-0.792;2023-02-28T14:36:10;17.20;31.30
50955;DHT22;36966;48.064;-0.792;2023-02-28T14:38:38;17.20;31.30
50955;DHT22;36966;48.064;-0.792;2023-02-28T14:41:04;17.10;31.30
50955;DHT22;36966;48.064;-0.792;2023-02-28T14:43:27;17.10;31.40
50955;DHT22;36966;48.064;-0.792;2023-02-28T14:46:01;17.10;31.40
50955;DHT22;36966;48.064;-0.792;2023-02-28T14:48:21;17.10;31.40
50955;DHT22;36966;48.064;-0.792;2023-02-28T14:50:52;17.10;31.30
50955;DHT22;36966;48.064;-0.792;2023-02-28T14:53:18;17.10;31.30
50955;DHT22;36966;48.064;-0.792;2023-02-28T14:55:45;17.10;31.40
50955;DHT22;36966;48.064;-0.792;2023-02-28T14:58:06;17.10;31.40
50955;DHT22;36966;48.064;-0.792;2023-02-28T15:00:31;17.00;31.40
50955;DHT22;36966;48.064;-0.792;2023-02-28T15:02:51;17.00;31.40
50955;DHT22;36966;48.064;-0.792;2023-02-28T15:07:37;17.00;31.50
50955;DHT22;36966;48.064;-0.792;2023-02-28T15:12:36;17.00;31.60
50955;DHT22;36966;48.064;-0.792;2023-02-28T15:14:56;17.00;31.60
50955;DHT22;36966;48.064;-0.792;2023-02-28T15:17:21;17.00;31.70
50955;DHT22;36966;48.064;-0.792;2023-02-28T15:19:43;16.90;31.70
50955;DHT22;36966;48.064;-0.792;2023-02-28T15:22:15;16.90;31.70
50955;DHT22;36966;48.064;-0.792;2023-02-28T15:24:40;16.90;31.80
50955;DHT22;36966;48.064;-0.792;2023-02-28T15:27:05;16.90;31.80
50955;DHT22;36966;48.064;-0.792;2023-02-28T15:29:27;16.90;32.00
50955;DHT22;36966;48.064;-0.792;2023-02-28T15:31:50;16.90;32.10
50955;DHT22;36966;48.064;-0.792;2023-02-28T15:34:41;16.90;32.40
50955;DHT22;36966;48.064;-0.792;2023-02-28T15:37:00;16.80;32.30
50955;DHT22;36966;48.064;-0.792;2023-02-28T15:39:25;16.90;32.30
50955;DHT22;36966;48.064;-0.792;2023-02-28T15:41:46;16.90;32.30
50955;DHT22;36966;48.064;-0.792;2023-02-28T15:44:27;16.80;32.30
50955;DHT22;36966;48.064;-0.792;2023-02-28T15:47:02;16.80;32.30
50955;DHT22;36966;48.064;-0.792;2023-02-28T15:49:22;16.80;32.40
50955;DHT22;36966;48.064;-0.792;2023-02-28T15:51:42;16.80;32.40
50955;DHT22;36966;48.064;-0.792;2023-02-28T15:54:10;16.80;32.40
50955;DHT22;36966;48.064;-0.792;2023-02-28T15:56:38;16.80;32.70
50955;DHT22;36966;48.064;-0.792;2023-02-28T15:59:03;16.80;32.80
50955;DHT22;36966;48.064;-0.792;2023-02-28T16:01:25;16.80;32.70
50955;DHT22;36966;48.064;-0.792;2023-02-28T16:03:50;16.80;32.90
50955;DHT22;36966;48.064;-0.792;2023-02-28T16:08:41;16.80;32.80
50955;DHT22;36966;48.064;-0.792;2023-02-28T16:11:00;16.80;32.80
50955;DHT22;36966;48.064;-0.792;2023-02-28T16:13:19;16.70;32.90
50955;DHT22;36966;48.064;-0.792;2023-02-28T16:15:41;16.70;32.90
50955;DHT22;36966;48.064;-0.792;2023-02-28T16:18:02;16.70;32.90
50955;DHT22;36966;48.064;-0.792;2023-02-28T16:20:29;16.70;32.90
50955;DHT22;36966;48.064;-0.792;2023-02-28T16:22:49;16.70;33.00
50955;DHT22;36966;48.064;-0.792;2023-02-28T16:25:35;16.70;33.00
50955;DHT22;36966;48.064;-0.792;2023-02-28T16:27:56;16.70;33.10
50955;DHT22;36966;48.064;-0.792;2023-02-28T16:30:22;16.70;33.10
50955;DHT22;36966;48.064;-0.792;2023-02-28T16:32:42;16.70;33.10
50955;DHT22;36966;48.064;-0.792;2023-02-28T16:35:02;16.70;33.10
50955;DHT22;36966;48.064;-0.792;2023-02-28T16:37:22;16.70;33.10
50955;DHT22;36966;48.064;-0.792;2023-02-28T16:39:42;16.70;33.20
50955;DHT22;36966;48.064;-0.792;2023-02-28T16:42:02;16.70;33.10
50955;DHT22;36966;48.064;-0.792;2023-02-28T16:44:35;16.70;33.20
50955;DHT22;36966;48.064;-0.792;2023-02-28T16:46:55;16.70;33.20
50955;DHT22;36966;48.064;-0.792;2023-02-28T16:49:14;16.70;33.30
50955;DHT22;36966;48.064;-0.792;2023-02-28T16:51:33;16.70;33.40
50955;DHT22;36966;48.064;-0.792;2023-02-28T16:53:52;16.60;33.40
50955;DHT22;36966;48.064;-0.792;2023-02-28T16:56:18;16.70;33.50
50955;DHT22;36966;48.064;-0.792;2023-02-28T16:58:38;16.60;33.50
50955;DHT22;36966;48.064;-0.792;2023-02-28T17:00:57;16.60;33.50
50955;DHT22;36966;48.064;-0.792;2023-02-28T17:03:23;16.60;33.50
50955;DHT22;36966;48.064;-0.792;2023-02-28T17:05:43;16.70;33.50
50955;DHT22;36966;48.064;-0.792;2023-02-28T17:08:02;16.70;33.50
50955;DHT22;36966;48.064;-0.792;2023-02-28T17:10:24;16.70;33.60